sensor_id;sensor_type;location;lat;lon;timestamp;P1;durP1;ratioP1;P2;durP2;ratioP2
75012;SDS011;63567;49.956;20.130;2023-01-01T00:00:22;4.20;;;2.60;;
75012;SDS011;63567;49.956;20.130;2023-01-01T00:02:47;4.77;;;2.87;;
75012;SDS011;63567;49.956;20.130;2023-01-01T00:05:13;5.13;;;2.50;;
75012;SDS011;63567;49.956;20.130;2023-01-01T00:07:38;4.33;;;2.60;;
75012;SDS011;63567;49.956;20.130;2023-01-01T00:10:03;4.93;;;2.57;;
75012;SDS011;63567;49.956;20.130;2023-01-01T00:12:47;4.72;;;2.40;;
75012;SDS011;63567;49.956;20.130;2023-01-01T00:15:13;3.90;;;2.77;;
75012;SDS011;63567;49.956;20.130;2023-01-01T00:17:38;4.67;;;2.47;;
75012;SDS011;63567;49.956;20.130;2023-01-01T00:20:03;4.90;;;2.53;;
75012;SDS011;63567;49.956;20.130;2023-01-01T00:22:29;4.88;;;2.50;;
75012;SDS011;63567;49.956;20.130;2023-01-01T00:24:55;4.93;;;2.33;;
75012;SDS011;63567;49.956;20.130;2023-01-01T00:27:20;4.40;;;2.20;;
75012;SDS011;63567;49.956;20.130;2023-01-01T00:29:45;4.10;;;2.40;;
75012;SDS011;63567;49.956;20.130;2023-01-01T00:32:11;4.40;;;2.40;;
75012;SDS011;63567;49.956;20.130;2023-01-01T00:34:36;4.25;;;2.35;;
75012;SDS011;63567;49.956;20.130;2023-01-01T00:37:02;3.97;;;2.33;;
75012;SDS011;63567;49.956;20.130;2023-01-01T00:39:27;4.17;;;2.50;;
75012;SDS011;63567;49.956;20.130;2023-01-01T00:41:52;3.57;;;2.37;;
75012;SDS011;63567;49.956;20.130;2023-01-01T00:44:17;3.53;;;1.87;;
75012;SDS011;63567;49.956;20.130;2023-01-01T00:46:43;4.47;;;2.50;;
75012;SDS011;63567;49.956;20.130;2023-01-01T00:49:08;4.47;;;2.43;;
75012;SDS011;63567;49.956;20.130;2023-01-01T00:51:33;3.73;;;2.33;;
75012;SDS011;63567;49.956;20.130;2023-01-01T00:53:58;3.57;;;2.10;;
75012;SDS011;63567;49.956;20.130;2023-01-01T00:56:24;3.67;;;2.20;;
75012;SDS011;63567;49.956;20.130;2023-01-01T00:58:49;3.78;;;2.08;;
75012;SDS011;63567;49.956;20.130;2023-01-01T01:01:15;4.07;;;2.33;;
75012;SDS011;63567;49.956;20.130;2023-01-01T01:03:40;4.53;;;2.30;;
75012;SDS011;63567;49.956;20.130;2023-01-01T01:06:07;3.80;;;1.90;;
75012;SDS011;63567;49.956;20.130;2023-01-01T01:08:34;3.33;;;2.30;;
75012;SDS011;63567;49.956;20.130;2023-01-01T01:11:03;3.53;;;1.92;;
75012;SDS011;63567;49.956;20.130;2023-01-01T01:13:30;4.05;;;2.10;;
75012;SDS011;63567;49.956;20.130;2023-01-01T01:15:55;3.50;;;2.03;;
75012;SDS011;63567;49.956;20.130;2023-01-01T01:18:20;3.93;;;2.13;;
75012;SDS011;63567;49.956;20.130;2023-01-01T01:20:49;4.03;;;2.40;;
75012;SDS011;63567;49.956;20.130;2023-01-01T01:23:15;4.50;;;2.03;;
75012;SDS011;63567;49.956;20.130;2023-01-01T01:25:41;3.50;;;2.00;;
75012;SDS011;63567;49.956;20.130;2023-01-01T01:28:06;3.50;;;1.90;;
75012;SDS011;63567;49.956;20.130;2023-01-01T01:30:31;2.57;;;1.60;;
75012;SDS011;63567;49.956;20.130;2023-01-01T01:32:57;3.37;;;2.00;;
75012;SDS011;63567;49.956;20.130;2023-01-01T01:35:22;3.53;;;1.80;;
75012;SDS011;63567;49.956;20.130;2023-01-01T01:37:47;3.50;;;1.77;;
75012;SDS011;63567;49.956;20.130;2023-01-01T01:40:12;3.43;;;2.10;;
75012;SDS011;63567;49.956;20.130;2023-01-01T01:42:43;2.75;;;1.70;;
75012;SDS011;63567;49.956;20.130;2023-01-01T01:45:10;3.88;;;2.10;;
75012;SDS011;63567;49.956;20.130;2023-01-01T01:50:08;3.72;;;1.83;;
75012;SDS011;63567;49.956;20.130;2023-01-01T01:52:39;3.65;;;1.95;;
75012;SDS011;63567;49.956;20.130;2023-01-01T01:55:11;4.13;;;2.00;;
75012;SDS011;63567;49.956;20.130;2023-01-01T01:57:38;3.35;;;1.80;;
75012;SDS011;63567;49.956;20.130;2023-01-01T02:00:05;3.20;;;1.73;;
75012;SDS011;63567;49.956;20.130;2023-01-01T02:02:33;4.03;;;1.95;;
75012;SDS011;63567;49.956;20.130;2023-01-01T02:05:02;4.03;;;2.40;;
75012;SDS011;63567;49.956;20.130;2023-01-01T02:07:29;3.90;;;1.83;;
75012;SDS011;63567;49.956;20.130;2023-01-01T02:09:56;3.33;;;1.95;;
75012;SDS011;63567;49.956;20.130;2023-01-01T02:12:22;3.38;;;1.77;;
75012;SDS011;63567;49.956;20.130;2023-01-01T02:14:48;4.18;;;2.10;;
75012;SDS011;63567;49.956;20.130;2023-01-01T02:20:59;4.53;;;2.10;;
75012;SDS011;63567;49.956;20.130;2023-01-01T02:25:43;4.85;;;2.22;;
75012;SDS011;63567;49.956;20.130;2023-01-01T02:31:32;3.85;;;1.98;;
75012;SDS011;63567;49.956;20.130;2023-01-01T02:34:04;3.65;;;1.83;;
75012;SDS011;63567;49.956;20.130;2023-01-01T02:36:32;4.22;;;2.08;;
75012;SDS011;63567;49.956;20.130;2023-01-01T02:39:04;3.72;;;2.00;;
75012;SDS011;63567;49.956;20.130;2023-01-01T02:41:33;3.22;;;1.90;;
75012;SDS011;63567;49.956;20.130;2023-01-01T02:44:03;3.20;;;2.05;;
75012;SDS011;63567;49.956;20.130;2023-01-01T02:46:33;3.88;;;1.92;;
75012;SDS011;63567;49.956;20.130;2023-01-01T02:48:59;3.35;;;1.77;;
75012;SDS011;63567;49.956;20.130;2023-01-01T02:51:34;3.63;;;2.20;;
75012;SDS011;63567;49.956;20.130;2023-01-01T02:54:06;3.33;;;1.90;;
75012;SDS011;63567;49.956;20.130;2023-01-01T02:59:48;3.35;;;2.03;;
75012;SDS011;63567;49.956;20.130;2023-01-01T03:05:33;2.95;;;1.50;;
75012;SDS011;63567;49.956;20.130;2023-01-01T03:08:22;2.60;;;1.50;;
75012;SDS011;63567;49.956;20.130;2023-01-01T03:10:58;3.75;;;1.75;;
75012;SDS011;63567;49.956;20.130;2023-01-01T03:18:46;3.17;;;1.60;;
75012;SDS011;63567;49.956;20.130;2023-01-01T03:23:47;3.33;;;1.50;;
75012;SDS011;63567;49.956;20.130;2023-01-01T03:26:18;2.92;;;1.40;;
75012;SDS011;63567;49.956;20.130;2023-01-01T03:28:51;4.72;;;1.63;;
75012;SDS011;63567;49.956;20.130;2023-01-01T03:31:20;2.25;;;1.30;;
75012;SDS011;63567;49.956;20.130;2023-01-01T03:33:51;3.72;;;1.75;;
75012;SDS011;63567;49.956;20.130;2023-01-01T03:36:30;3.05;;;1.40;;
75012;SDS011;63567;49.956;20.130;2023-01-01T03:39:05;3.83;;;1.52;;
75012;SDS011;63567;49.956;20.130;2023-01-01T03:41:44;3.70;;;1.60;;
75012;SDS011;63567;49.956;20.130;2023-01-01T03:44:24;2.97;;;1.55;;
75012;SDS011;63567;49.956;20.130;2023-01-01T03:46:54;2.92;;;1.80;;
75012;SDS011;63567;49.956;20.130;2023-01-01T03:49:20;2.80;;;1.20;;
75012;SDS011;63567;49.956;20.130;2023-01-01T03:54:44;2.75;;;1.20;;
75012;SDS011;63567;49.956;20.130;2023-01-01T04:00:06;2.35;;;1.13;;
75012;SDS011;63567;49.956;20.130;2023-01-01T04:03:18;2.20;;;1.42;;
75012;SDS011;63567;49.956;20.130;2023-01-01T04:05:30;3.22;;;1.23;;
75012;SDS011;63567;49.956;20.130;2023-01-01T04:07:59;4.07;;;1.42;;
75012;SDS011;63567;49.956;20.130;2023-01-01T04:10:27;2.75;;;1.35;;
75012;SDS011;63567;49.956;20.130;2023-01-01T04:12:55;3.47;;;1.40;;
75012;SDS011;63567;49.956;20.130;2023-01-01T04:15:24;2.28;;;1.40;;
75012;SDS011;63567;49.956;20.130;2023-01-01T04:17:51;2.88;;;1.20;;
75012;SDS011;63567;49.956;20.130;2023-01-01T04:20:18;2.92;;;1.40;;
75012;SDS011;63567;49.956;20.130;2023-01-01T04:22:44;2.67;;;1.02;;
75012;SDS011;63567;49.956;20.130;2023-01-01T04:25:10;3.20;;;1.75;;
75012;SDS011;63567;49.956;20.130;2023-01-01T04:27:36;2.63;;;1.10;;
75012;SDS011;63567;49.956;20.130;2023-01-01T04:30:03;2.38;;;0.93;;
75012;SDS011;63567;49.956;20.130;2023-01-01T04:32:30;2.33;;;1.00;;
75012;SDS011;63567;49.956;20.130;2023-01-01T04:34:55;1.98;;;1.00;;
75012;SDS011;63567;49.956;20.130;2023-01-01T04:37:20;4.63;;;1.60;;
75012;SDS011;63567;49.956;20.130;2023-01-01T04:39:46;2.67;;;1.30;;
75012;SDS011;63567;49.956;20.130;2023-01-01T04:42:11;2.17;;;1.07;;
75012;SDS011;63567;49.956;20.130;2023-01-01T04:44:36;2.30;;;1.00;;
75012;SDS011;63567;49.956;20.130;2023-01-01T04:47:02;2.87;;;1.10;;
75012;SDS011;63567;49.956;20.130;2023-01-01T04:49:27;3.45;;;1.35;;
75012;SDS011;63567;49.956;20.130;2023-01-01T04:51:52;2.33;;;1.00;;
75012;SDS011;63567;49.956;20.130;2023-01-01T04:54:18;2.80;;;1.10;;
75012;SDS011;63567;49.956;20.130;2023-01-01T04:56:43;2.40;;;1.20;;
75012;SDS011;63567;49.956;20.130;2023-01-01T04:59:08;1.90;;;1.10;;
75012;SDS011;63567;49.956;20.130;2023-01-01T05:01:33;2.73;;;0.97;;
75012;SDS011;63567;49.956;20.130;2023-01-01T05:03:59;2.60;;;1.20;;
75012;SDS011;63567;49.956;20.130;2023-01-01T05:06:25;2.75;;;1.27;;
75012;SDS011;63567;49.956;20.130;2023-01-01T05:08:51;2.63;;;1.10;;
75012;SDS011;63567;49.956;20.130;2023-01-01T05:11:29;3.10;;;1.50;;
75012;SDS011;63567;49.956;20.130;2023-01-01T05:13:56;2.63;;;1.10;;
75012;SDS011;63567;49.956;20.130;2023-01-01T05:16:24;2.90;;;1.40;;
75012;SDS011;63567;49.956;20.130;2023-01-01T05:18:51;3.50;;;1.63;;
75012;SDS011;63567;49.956;20.130;2023-01-01T05:21:18;2.13;;;1.05;;
75012;SDS011;63567;49.956;20.130;2023-01-01T05:23:48;2.00;;;0.90;;
75012;SDS011;63567;49.956;20.130;2023-01-01T05:26:18;2.45;;;1.10;;
75012;SDS011;63567;49.956;20.130;2023-01-01T05:28:47;2.47;;;1.00;;
75012;SDS011;63567;49.956;20.130;2023-01-01T05:31:13;2.33;;;1.08;;
75012;SDS011;63567;49.956;20.130;2023-01-01T05:36:08;2.30;;;1.00;;
75012;SDS011;63567;49.956;20.130;2023-01-01T05:38:38;2.30;;;1.02;;
75012;SDS011;63567;49.956;20.130;2023-01-01T05:41:04;2.33;;;1.20;;
75012;SDS011;63567;49.956;20.130;2023-01-01T05:43:33;1.88;;;1.00;;
75012;SDS011;63567;49.956;20.130;2023-01-01T05:45:59;2.13;;;0.90;;
75012;SDS011;63567;49.956;20.130;2023-01-01T05:48:26;2.35;;;1.10;;
75012;SDS011;63567;49.956;20.130;2023-01-01T05:50:51;2.30;;;1.30;;
75012;SDS011;63567;49.956;20.130;2023-01-01T05:53:16;2.13;;;1.00;;
75012;SDS011;63567;49.956;20.130;2023-01-01T05:55:41;1.87;;;0.90;;
75012;SDS011;63567;49.956;20.130;2023-01-01T05:58:07;2.60;;;1.03;;
75012;SDS011;63567;49.956;20.130;2023-01-01T06:00:32;2.33;;;1.00;;
75012;SDS011;63567;49.956;20.130;2023-01-01T06:02:57;2.20;;;0.90;;
75012;SDS011;63567;49.956;20.130;2023-01-01T06:05:23;2.00;;;0.80;;
75012;SDS011;63567;49.956;20.130;2023-01-01T06:07:48;1.87;;;0.80;;
75012;SDS011;63567;49.956;20.130;2023-01-01T06:10:13;2.37;;;0.90;;
75012;SDS011;63567;49.956;20.130;2023-01-01T06:12:38;1.90;;;0.90;;
75012;SDS011;63567;49.956;20.130;2023-01-01T06:15:04;2.63;;;0.93;;
75012;SDS011;63567;49.956;20.130;2023-01-01T06:17:29;2.20;;;0.82;;
75012;SDS011;63567;49.956;20.130;2023-01-01T06:19:57;2.38;;;0.98;;
75012;SDS011;63567;49.956;20.130;2023-01-01T06:22:22;2.27;;;1.00;;
75012;SDS011;63567;49.956;20.130;2023-01-01T06:24:48;2.23;;;0.90;;
75012;SDS011;63567;49.956;20.130;2023-01-01T06:27:13;2.47;;;1.13;;
75012;SDS011;63567;49.956;20.130;2023-01-01T06:29:38;2.80;;;1.30;;
75012;SDS011;63567;49.956;20.130;2023-01-01T06:32:03;2.20;;;1.27;;
75012;SDS011;63567;49.956;20.130;2023-01-01T06:34:29;2.47;;;1.07;;
75012;SDS011;63567;49.956;20.130;2023-01-01T06:36:54;2.90;;;1.20;;
75012;SDS011;63567;49.956;20.130;2023-01-01T06:39:19;2.30;;;1.40;;
75012;SDS011;63567;49.956;20.130;2023-01-01T06:41:44;1.97;;;1.07;;
75012;SDS011;63567;49.956;20.130;2023-01-01T06:44:10;2.47;;;1.33;;
75012;SDS011;63567;49.956;20.130;2023-01-01T06:46:35;2.40;;;1.23;;
75012;SDS011;63567;49.956;20.130;2023-01-01T06:49:01;2.73;;;1.20;;
75012;SDS011;63567;49.956;20.130;2023-01-01T06:51:30;2.47;;;1.30;;
75012;SDS011;63567;49.956;20.130;2023-01-01T06:53:57;2.80;;;1.55;;
75012;SDS011;63567;49.956;20.130;2023-01-01T06:56:23;3.13;;;1.60;;
75012;SDS011;63567;49.956;20.130;2023-01-01T06:58:49;5.18;;;1.90;;
75012;SDS011;63567;49.956;20.130;2023-01-01T07:01:15;3.80;;;2.00;;
75012;SDS011;63567;49.956;20.130;2023-01-01T07:03:43;3.80;;;2.75;;
75012;SDS011;63567;49.956;20.130;2023-01-01T07:06:09;6.22;;;2.80;;
75012;SDS011;63567;49.956;20.130;2023-01-01T07:08:35;4.57;;;2.42;;
75012;SDS011;63567;49.956;20.130;2023-01-01T07:11:01;5.10;;;2.95;;
75012;SDS011;63567;49.956;20.130;2023-01-01T07:13:27;5.47;;;3.17;;
75012;SDS011;63567;49.956;20.130;2023-01-01T07:15:54;5.82;;;3.45;;
75012;SDS011;63567;49.956;20.130;2023-01-01T07:18:20;4.85;;;3.10;;
75012;SDS011;63567;49.956;20.130;2023-01-01T07:20:48;6.45;;;3.70;;
75012;SDS011;63567;49.956;20.130;2023-01-01T07:23:17;6.00;;;3.15;;
75012;SDS011;63567;49.956;20.130;2023-01-01T07:25:42;6.28;;;3.60;;
75012;SDS011;63567;49.956;20.130;2023-01-01T07:28:08;5.72;;;3.67;;
75012;SDS011;63567;49.956;20.130;2023-01-01T07:30:33;5.83;;;3.50;;
75012;SDS011;63567;49.956;20.130;2023-01-01T07:32:59;6.53;;;3.80;;
75012;SDS011;63567;49.956;20.130;2023-01-01T07:35:24;6.77;;;3.93;;
75012;SDS011;63567;49.956;20.130;2023-01-01T07:37:49;5.57;;;3.23;;
75012;SDS011;63567;49.956;20.130;2023-01-01T07:40:14;5.13;;;3.43;;
75012;SDS011;63567;49.956;20.130;2023-01-01T07:42:40;5.13;;;2.83;;
75012;SDS011;63567;49.956;20.130;2023-01-01T07:45:05;5.33;;;2.80;;
75012;SDS011;63567;49.956;20.130;2023-01-01T07:47:31;5.40;;;2.55;;
75012;SDS011;63567;49.956;20.130;2023-01-01T07:49:56;5.05;;;2.58;;
75012;SDS011;63567;49.956;20.130;2023-01-01T07:52:22;3.80;;;2.20;;
75012;SDS011;63567;49.956;20.130;2023-01-01T07:54:47;3.40;;;1.90;;
75012;SDS011;63567;49.956;20.130;2023-01-01T07:57:12;3.43;;;1.80;;
75012;SDS011;63567;49.956;20.130;2023-01-01T07:59:38;4.53;;;2.30;;
75012;SDS011;63567;49.956;20.130;2023-01-01T08:02:03;3.57;;;1.90;;
75012;SDS011;63567;49.956;20.130;2023-01-01T08:04:28;5.07;;;2.00;;
75012;SDS011;63567;49.956;20.130;2023-01-01T08:06:54;3.43;;;1.80;;
75012;SDS011;63567;49.956;20.130;2023-01-01T08:09:19;3.03;;;1.52;;
75012;SDS011;63567;49.956;20.130;2023-01-01T08:11:45;2.83;;;1.00;;
75012;SDS011;63567;49.956;20.130;2023-01-01T08:14:11;2.60;;;1.40;;
75012;SDS011;63567;49.956;20.130;2023-01-01T08:16:37;3.03;;;1.20;;
75012;SDS011;63567;49.956;20.130;2023-01-01T08:19:02;3.17;;;1.43;;
75012;SDS011;63567;49.956;20.130;2023-01-01T08:21:28;2.38;;;1.27;;
75012;SDS011;63567;49.956;20.130;2023-01-01T08:23:54;5.38;;;1.27;;
75012;SDS011;63567;49.956;20.130;2023-01-01T08:26:29;2.57;;;1.00;;
75012;SDS011;63567;49.956;20.130;2023-01-01T08:28:56;3.17;;;1.23;;
75012;SDS011;63567;49.956;20.130;2023-01-01T08:31:22;2.08;;;1.10;;
75012;SDS011;63567;49.956;20.130;2023-01-01T08:33:48;2.28;;;1.17;;
75012;SDS011;63567;49.956;20.130;2023-01-01T08:36:13;2.27;;;1.10;;
75012;SDS011;63567;49.956;20.130;2023-01-01T08:38:40;2.55;;;1.20;;
75012;SDS011;63567;49.956;20.130;2023-01-01T08:41:05;2.92;;;1.50;;
75012;SDS011;63567;49.956;20.130;2023-01-01T08:43:30;2.70;;;1.43;;
75012;SDS011;63567;49.956;20.130;2023-01-01T08:45:56;2.00;;;1.10;;
75012;SDS011;63567;49.956;20.130;2023-01-01T08:48:21;2.40;;;1.07;;
75012;SDS011;63567;49.956;20.130;2023-01-01T08:50:53;1.97;;;1.10;;
75012;SDS011;63567;49.956;20.130;2023-01-01T08:53:19;3.78;;;1.63;;
75012;SDS011;63567;49.956;20.130;2023-01-01T08:55:44;2.83;;;1.30;;
75012;SDS011;63567;49.956;20.130;2023-01-01T08:58:09;2.90;;;1.53;;
75012;SDS011;63567;49.956;20.130;2023-01-01T09:00:34;2.80;;;1.83;;
75012;SDS011;63567;49.956;20.130;2023-01-01T09:03:00;3.33;;;1.70;;
75012;SDS011;63567;49.956;20.130;2023-01-01T09:05:25;4.03;;;2.23;;
75012;SDS011;63567;49.956;20.130;2023-01-01T09:07:50;3.00;;;1.70;;
75012;SDS011;63567;49.956;20.130;2023-01-01T09:10:15;3.30;;;1.90;;
75012;SDS011;63567;49.956;20.130;2023-01-01T09:12:41;4.03;;;1.70;;
75012;SDS011;63567;49.956;20.130;2023-01-01T09:15:08;8.03;;;4.20;;
75012;SDS011;63567;49.956;20.130;2023-01-01T09:17:39;9.02;;;5.70;;
75012;SDS011;63567;49.956;20.130;2023-01-01T09:20:05;9.97;;;7.07;;
75012;SDS011;63567;49.956;20.130;2023-01-01T09:22:30;5.90;;;3.35;;
75012;SDS011;63567;49.956;20.130;2023-01-01T09:24:55;4.00;;;2.33;;
75012;SDS011;63567;49.956;20.130;2023-01-01T09:27:21;5.00;;;3.17;;
75012;SDS011;63567;49.956;20.130;2023-01-01T09:29:46;4.37;;;2.57;;
75012;SDS011;63567;49.956;20.130;2023-01-01T09:32:11;3.67;;;2.80;;
75012;SDS011;63567;49.956;20.130;2023-01-01T09:34:36;5.70;;;3.50;;
75012;SDS011;63567;49.956;20.130;2023-01-01T09:37:02;10.40;;;6.40;;
75012;SDS011;63567;49.956;20.130;2023-01-01T09:39:27;10.53;;;7.13;;
75012;SDS011;63567;49.956;20.130;2023-01-01T09:47:48;6.80;;;4.15;;
75012;SDS011;63567;49.956;20.130;2023-01-01T09:50:20;7.60;;;4.93;;
75012;SDS011;63567;49.956;20.130;2023-01-01T09:52:49;7.60;;;4.97;;
75012;SDS011;63567;49.956;20.130;2023-01-01T09:55:24;7.13;;;4.95;;
75012;SDS011;63567;49.956;20.130;2023-01-01T09:57:52;7.82;;;5.03;;
75012;SDS011;63567;49.956;20.130;2023-01-01T10:00:19;7.57;;;5.35;;
75012;SDS011;63567;49.956;20.130;2023-01-01T10:02:53;6.93;;;4.83;;
75012;SDS011;63567;49.956;20.130;2023-01-01T10:08:16;9.00;;;5.97;;
75012;SDS011;63567;49.956;20.130;2023-01-01T10:10:56;8.15;;;6.47;;
75012;SDS011;63567;49.956;20.130;2023-01-01T10:13:26;10.00;;;5.82;;
75012;SDS011;63567;49.956;20.130;2023-01-01T10:18:57;7.65;;;6.32;;
75012;SDS011;63567;49.956;20.130;2023-01-01T10:21:36;7.95;;;6.43;;
75012;SDS011;63567;49.956;20.130;2023-01-01T10:24:21;7.60;;;6.80;;
75012;SDS011;63567;49.956;20.130;2023-01-01T10:27:01;7.25;;;6.55;;
75012;SDS011;63567;49.956;20.130;2023-01-01T10:32:33;5.80;;;5.18;;
75012;SDS011;63567;49.956;20.130;2023-01-01T10:34:59;6.47;;;5.07;;
75012;SDS011;63567;49.956;20.130;2023-01-01T10:37:28;9.43;;;8.70;;
75012;SDS011;63567;49.956;20.130;2023-01-01T10:39:59;7.28;;;6.28;;
75012;SDS011;63567;49.956;20.130;2023-01-01T10:42:29;7.05;;;5.90;;
75012;SDS011;63567;49.956;20.130;2023-01-01T10:44:55;9.13;;;7.53;;
75012;SDS011;63567;49.956;20.130;2023-01-01T10:47:22;7.97;;;7.18;;
75012;SDS011;63567;49.956;20.130;2023-01-01T10:49:53;7.63;;;6.82;;
75012;SDS011;63567;49.956;20.130;2023-01-01T10:52:24;7.97;;;7.05;;
75012;SDS011;63567;49.956;20.130;2023-01-01T10:54:57;8.25;;;7.43;;
75012;SDS011;63567;49.956;20.130;2023-01-01T10:59:52;10.55;;;7.28;;
75012;SDS011;63567;49.956;20.130;2023-01-01T11:02:22;9.35;;;8.65;;
75012;SDS011;63567;49.956;20.130;2023-01-01T11:04:55;7.53;;;6.68;;
75012;SDS011;63567;49.956;20.130;2023-01-01T11:07:41;6.57;;;5.88;;
75012;SDS011;63567;49.956;20.130;2023-01-01T11:10:14;6.28;;;5.68;;
75012;SDS011;63567;49.956;20.130;2023-01-01T11:12:42;5.93;;;5.00;;
75012;SDS011;63567;49.956;20.130;2023-01-01T11:15:07;5.47;;;4.97;;
75012;SDS011;63567;49.956;20.130;2023-01-01T11:17:50;6.95;;;6.35;;
75012;SDS011;63567;49.956;20.130;2023-01-01T11:20:16;9.05;;;8.45;;
75012;SDS011;63567;49.956;20.130;2023-01-01T11:22:44;6.20;;;5.60;;
75012;SDS011;63567;49.956;20.130;2023-01-01T11:27:42;5.60;;;4.25;;
75012;SDS011;63567;49.956;20.130;2023-01-01T11:32:53;5.28;;;3.63;;
75012;SDS011;63567;49.956;20.130;2023-01-01T11:35:25;4.95;;;3.60;;
75012;SDS011;63567;49.956;20.130;2023-01-01T11:37:53;5.20;;;3.22;;
75012;SDS011;63567;49.956;20.130;2023-01-01T11:40:36;4.40;;;3.53;;
75012;SDS011;63567;49.956;20.130;2023-01-01T11:43:13;5.43;;;3.53;;
75012;SDS011;63567;49.956;20.130;2023-01-01T11:45:44;5.72;;;3.85;;
75012;SDS011;63567;49.956;20.130;2023-01-01T11:48:12;6.22;;;3.80;;
75012;SDS011;63567;49.956;20.130;2023-01-01T11:50:47;4.40;;;3.42;;
75012;SDS011;63567;49.956;20.130;2023-01-01T11:53:24;4.28;;;2.60;;
75012;SDS011;63567;49.956;20.130;2023-01-01T11:56:15;3.85;;;3.03;;
75012;SDS011;63567;49.956;20.130;2023-01-01T11:58:42;4.13;;;2.97;;
75012;SDS011;63567;49.956;20.130;2023-01-01T12:04:18;4.93;;;3.08;;
75012;SDS011;63567;49.956;20.130;2023-01-01T12:06:54;4.13;;;2.70;;
75012;SDS011;63567;49.956;20.130;2023-01-01T12:09:45;4.07;;;2.58;;
75012;SDS011;63567;49.956;20.130;2023-01-01T12:12:30;5.78;;;2.65;;
75012;SDS011;63567;49.956;20.130;2023-01-01T12:22:46;4.07;;;2.75;;
75012;SDS011;63567;49.956;20.130;2023-01-01T12:25:12;3.65;;;2.38;;
75012;SDS011;63567;49.956;20.130;2023-01-01T12:38:34;10.20;;;5.15;;
75012;SDS011;63567;49.956;20.130;2023-01-01T12:43:59;3.63;;;2.63;;
75012;SDS011;63567;49.956;20.130;2023-01-01T12:54:39;4.22;;;2.35;;
75012;SDS011;63567;49.956;20.130;2023-01-01T12:57:39;3.88;;;2.78;;
75012;SDS011;63567;49.956;20.130;2023-01-01T13:00:10;4.20;;;2.72;;
75012;SDS011;63567;49.956;20.130;2023-01-01T13:02:40;4.47;;;2.97;;
75012;SDS011;63567;49.956;20.130;2023-01-01T13:05:21;4.90;;;2.90;;
75012;SDS011;63567;49.956;20.130;2023-01-01T13:07:50;4.22;;;2.90;;
75012;SDS011;63567;49.956;20.130;2023-01-01T13:12:53;3.92;;;2.55;;
75012;SDS011;63567;49.956;20.130;2023-01-01T13:18:04;5.53;;;4.28;;
75012;SDS011;63567;49.956;20.130;2023-01-01T13:20:30;4.25;;;2.97;;
75012;SDS011;63567;49.956;20.130;2023-01-01T13:22:56;4.13;;;3.30;;
75012;SDS011;63567;49.956;20.130;2023-01-01T13:25:25;3.90;;;2.83;;
75012;SDS011;63567;49.956;20.130;2023-01-01T13:38:49;4.47;;;3.33;;
75012;SDS011;63567;49.956;20.130;2023-01-01T13:41:31;5.53;;;2.90;;
75012;SDS011;63567;49.956;20.130;2023-01-01T13:47:20;4.13;;;3.00;;
75012;SDS011;63567;49.956;20.130;2023-01-01T13:49:33;5.55;;;3.40;;
75012;SDS011;63567;49.956;20.130;2023-01-01T13:52:25;4.63;;;3.30;;
75012;SDS011;63567;49.956;20.130;2023-01-01T14:01:18;5.85;;;3.22;;
75012;SDS011;63567;49.956;20.130;2023-01-01T14:03:58;5.60;;;3.78;;
75012;SDS011;63567;49.956;20.130;2023-01-01T14:06:33;4.50;;;3.42;;
75012;SDS011;63567;49.956;20.130;2023-01-01T14:09:12;5.43;;;2.97;;
75012;SDS011;63567;49.956;20.130;2023-01-01T14:11:38;10.73;;;6.78;;
75012;SDS011;63567;49.956;20.130;2023-01-01T14:16:49;11.15;;;7.78;;
75012;SDS011;63567;49.956;20.130;2023-01-01T14:19:16;12.93;;;8.25;;
75012;SDS011;63567;49.956;20.130;2023-01-01T14:21:41;11.37;;;8.03;;
75012;SDS011;63567;49.956;20.130;2023-01-01T14:24:09;14.93;;;9.30;;
75012;SDS011;63567;49.956;20.130;2023-01-01T14:26:38;12.95;;;9.45;;
75012;SDS011;63567;49.956;20.130;2023-01-01T14:29:05;10.38;;;7.55;;
75012;SDS011;63567;49.956;20.130;2023-01-01T14:31:38;11.85;;;7.90;;
75012;SDS011;63567;49.956;20.130;2023-01-01T14:34:13;10.90;;;7.13;;
75012;SDS011;63567;49.956;20.130;2023-01-01T14:36:38;10.00;;;6.95;;
75012;SDS011;63567;49.956;20.130;2023-01-01T14:39:24;11.80;;;7.05;;
75012;SDS011;63567;49.956;20.130;2023-01-01T14:42:06;11.88;;;6.60;;
75012;SDS011;63567;49.956;20.130;2023-01-01T14:44:43;9.30;;;6.10;;
75012;SDS011;63567;49.956;20.130;2023-01-01T14:47:17;9.77;;;6.05;;
75012;SDS011;63567;49.956;20.130;2023-01-01T14:49:46;9.80;;;6.75;;
75012;SDS011;63567;49.956;20.130;2023-01-01T14:52:14;10.07;;;6.32;;
75012;SDS011;63567;49.956;20.130;2023-01-01T14:54:52;10.32;;;6.82;;
75012;SDS011;63567;49.956;20.130;2023-01-01T14:57:24;10.07;;;6.35;;
75012;SDS011;63567;49.956;20.130;2023-01-01T14:59:53;9.07;;;5.40;;
75012;SDS011;63567;49.956;20.130;2023-01-01T15:02:21;8.10;;;5.40;;
75012;SDS011;63567;49.956;20.130;2023-01-01T15:04:48;10.73;;;5.65;;
75012;SDS011;63567;49.956;20.130;2023-01-01T15:07:20;9.95;;;5.72;;
75012;SDS011;63567;49.956;20.130;2023-01-01T15:09:47;9.07;;;5.82;;
75012;SDS011;63567;49.956;20.130;2023-01-01T15:12:14;9.75;;;6.05;;
75012;SDS011;63567;49.956;20.130;2023-01-01T15:14:42;10.35;;;6.60;;
75012;SDS011;63567;49.956;20.130;2023-01-01T15:17:16;10.40;;;6.35;;
75012;SDS011;63567;49.956;20.130;2023-01-01T15:19:47;10.68;;;6.80;;
75012;SDS011;63567;49.956;20.130;2023-01-01T15:22:26;10.98;;;6.90;;
75012;SDS011;63567;49.956;20.130;2023-01-01T15:24:57;11.15;;;7.15;;
75012;SDS011;63567;49.956;20.130;2023-01-01T15:27:33;11.73;;;7.18;;
75012;SDS011;63567;49.956;20.130;2023-01-01T15:30:00;12.70;;;8.10;;
75012;SDS011;63567;49.956;20.130;2023-01-01T15:32:29;14.02;;;8.23;;
75012;SDS011;63567;49.956;20.130;2023-01-01T15:34:57;13.10;;;8.32;;
75012;SDS011;63567;49.956;20.130;2023-01-01T15:45:20;12.13;;;8.25;;
75012;SDS011;63567;49.956;20.130;2023-01-01T15:47:47;15.80;;;9.68;;
75012;SDS011;63567;49.956;20.130;2023-01-01T15:52:51;14.95;;;9.50;;
75012;SDS011;63567;49.956;20.130;2023-01-01T15:57:45;11.87;;;7.67;;
75012;SDS011;63567;49.956;20.130;2023-01-01T16:00:17;12.50;;;7.05;;
75012;SDS011;63567;49.956;20.130;2023-01-01T16:02:46;12.02;;;7.00;;
75012;SDS011;63567;49.956;20.130;2023-01-01T16:05:16;12.73;;;6.70;;
75012;SDS011;63567;49.956;20.130;2023-01-01T16:07:44;14.30;;;7.40;;
75012;SDS011;63567;49.956;20.130;2023-01-01T16:10:14;12.85;;;7.30;;
75012;SDS011;63567;49.956;20.130;2023-01-01T16:12:40;11.02;;;6.93;;
75012;SDS011;63567;49.956;20.130;2023-01-01T16:15:05;10.13;;;6.17;;
75012;SDS011;63567;49.956;20.130;2023-01-01T16:17:32;10.43;;;5.65;;
75012;SDS011;63567;49.956;20.130;2023-01-01T16:19:58;10.13;;;6.13;;
75012;SDS011;63567;49.956;20.130;2023-01-01T16:22:23;11.18;;;6.32;;
75012;SDS011;63567;49.956;20.130;2023-01-01T16:24:49;10.25;;;6.32;;
75012;SDS011;63567;49.956;20.130;2023-01-01T16:27:14;10.80;;;6.13;;
75012;SDS011;63567;49.956;20.130;2023-01-01T16:29:39;8.23;;;5.80;;
75012;SDS011;63567;49.956;20.130;2023-01-01T16:32:05;9.80;;;6.25;;
75012;SDS011;63567;49.956;20.130;2023-01-01T16:34:30;10.43;;;6.70;;
75012;SDS011;63567;49.956;20.130;2023-01-01T16:36:56;11.27;;;6.90;;
75012;SDS011;63567;49.956;20.130;2023-01-01T16:39:21;11.30;;;7.40;;
75012;SDS011;63567;49.956;20.130;2023-01-01T16:41:46;12.33;;;8.00;;
75012;SDS011;63567;49.956;20.130;2023-01-01T16:44:12;11.47;;;7.50;;
75012;SDS011;63567;49.956;20.130;2023-01-01T16:46:38;11.50;;;6.97;;
75012;SDS011;63567;49.956;20.130;2023-01-01T16:49:03;11.93;;;7.53;;
75012;SDS011;63567;49.956;20.130;2023-01-01T16:51:29;11.83;;;7.40;;